sensor_id;sensor_type;location;lat;lon;timestamp;P1;durP1;ratioP1;P2;durP2;ratioP2
22015;SDS011;11172;51.698;-0.292;2022-10-15T00:00:39;491.92;;;443.52;;
22015;SDS011;11172;51.698;-0.292;2022-10-15T00:03:05;487.45;;;443.75;;
22015;SDS011;11172;51.698;-0.292;2022-10-15T00:05:31;491.02;;;447.92;;
22015;SDS011;11172;51.698;-0.292;2022-10-15T00:07:57;484.42;;;442.13;;
22015;SDS011;11172;51.698;-0.292;2022-10-15T00:10:23;504.27;;;459.48;;
22015;SDS011;11172;51.698;-0.292;2022-10-15T00:12:49;492.25;;;448.15;;
22015;SDS011;11172;51.698;-0.292;2022-10-15T00:15:15;488.08;;;443.60;;
22015;SDS011;11172;51.698;-0.292;2022-10-15T00:17:41;481.77;;;438.83;;
22015;SDS011;11172;51.698;-0.292;2022-10-15T00:20:08;484.60;;;441.15;;
22015;SDS011;11172;51.698;-0.292;2022-10-15T00:22:35;489.50;;;446.08;;
22015;SDS011;11172;51.698;-0.292;2022-10-15T00:25:01;483.83;;;439.73;;
22015;SDS011;11172;51.698;-0.292;2022-10-15T00:27:27;469.63;;;427.60;;
22015;SDS011;11172;51.698;-0.292;2022-10-15T00:29:53;476.40;;;434.23;;
22015;SDS011;11172;51.698;-0.292;2022-10-15T00:32:19;471.30;;;428.08;;
22015;SDS011;11172;51.698;-0.292;2022-10-15T00:34:45;469.13;;;426.92;;
22015;SDS011;11172;51.698;-0.292;2022-10-15T00:37:11;472.00;;;430.42;;
22015;SDS011;11172;51.698;-0.292;2022-10-15T00:39:37;462.35;;;420.27;;
22015;SDS011;11172;51.698;-0.292;2022-10-15T00:42:03;472.10;;;430.52;;
22015;SDS011;11172;51.698;-0.292;2022-10-15T00:51:58;462.15;;;421.67;;
22015;SDS011;11172;51.698;-0.292;2022-10-15T00:54:26;465.33;;;423.58;;
22015;SDS011;11172;51.698;-0.292;2022-10-15T00:56:52;457.52;;;416.77;;
22015;SDS011;11172;51.698;-0.292;2022-10-15T00:59:20;458.55;;;418.15;;
22015;SDS011;11172;51.698;-0.292;2022-10-15T01:01:47;459.58;;;417.02;;
22015;SDS011;11172;51.698;-0.292;2022-10-15T01:04:13;451.52;;;410.83;;
22015;SDS011;11172;51.698;-0.292;2022-10-15T01:06:41;457.23;;;416.45;;
22015;SDS011;11172;51.698;-0.292;2022-10-15T01:09:07;450.20;;;410.13;;
22015;SDS011;11172;51.698;-0.292;2022-10-15T01:11:38;429.70;;;391.15;;
22015;SDS011;11172;51.698;-0.292;2022-10-15T01:16:44;451.67;;;411.67;;
22015;SDS011;11172;51.698;-0.292;2022-10-15T01:34:39;449.77;;;408.75;;
22015;SDS011;11172;51.698;-0.292;2022-10-15T01:37:13;456.20;;;413.02;;
22015;SDS011;11172;51.698;-0.292;2022-10-15T01:39:43;449.77;;;409.10;;
22015;SDS011;11172;51.698;-0.292;2022-10-15T01:42:14;462.15;;;420.10;;
22015;SDS011;11172;51.698;-0.292;2022-10-15T01:44:43;460.63;;;418.35;;
22015;SDS011;11172;51.698;-0.292;2022-10-15T01:47:19;449.75;;;405.65;;
22015;SDS011;11172;51.698;-0.292;2022-10-15T01:49:47;457.85;;;415.02;;
22015;SDS011;11172;51.698;-0.292;2022-10-15T01:52:19;450.90;;;410.33;;
22015;SDS011;11172;51.698;-0.292;2022-10-15T01:54:46;433.75;;;394.10;;
22015;SDS011;11172;51.698;-0.292;2022-10-15T01:57:12;448.83;;;408.33;;
22015;SDS011;11172;51.698;-0.292;2022-10-15T01:59:39;443.77;;;403.77;;
22015;SDS011;11172;51.698;-0.292;2022-10-15T02:02:07;446.17;;;404.40;;
22015;SDS011;11172;51.698;-0.292;2022-10-15T02:04:33;435.40;;;396.73;;
22015;SDS011;11172;51.698;-0.292;2022-10-15T02:07:03;441.48;;;401.05;;
22015;SDS011;11172;51.698;-0.292;2022-10-15T02:14:43;435.80;;;397.05;;
22015;SDS011;11172;51.698;-0.292;2022-10-15T02:17:12;431.92;;;392.73;;
22015;SDS011;11172;51.698;-0.292;2022-10-15T02:22:07;421.27;;;382.80;;
22015;SDS011;11172;51.698;-0.292;2022-10-15T02:25:19;434.33;;;394.80;;
22015;SDS011;11172;51.698;-0.292;2022-10-15T02:27:25;443.98;;;403.85;;
22015;SDS011;11172;51.698;-0.292;2022-10-15T02:29:52;443.17;;;402.17;;
22015;SDS011;11172;51.698;-0.292;2022-10-15T02:32:20;423.17;;;385.70;;
22015;SDS011;11172;51.698;-0.292;2022-10-15T02:34:46;426.65;;;387.70;;
22015;SDS011;11172;51.698;-0.292;2022-10-15T02:37:13;433.08;;;394.45;;
22015;SDS011;11172;51.698;-0.292;2022-10-15T02:39:40;424.33;;;386.95;;
22015;SDS011;11172;51.698;-0.292;2022-10-15T02:42:06;428.02;;;389.55;;
22015;SDS011;11172;51.698;-0.292;2022-10-15T02:44:32;424.05;;;386.83;;
22015;SDS011;11172;51.698;-0.292;2022-10-15T02:46:58;445.85;;;407.13;;
22015;SDS011;11172;51.698;-0.292;2022-10-15T02:49:24;422.45;;;385.17;;
22015;SDS011;11172;51.698;-0.292;2022-10-15T02:51:50;440.30;;;401.58;;
22015;SDS011;11172;51.698;-0.292;2022-10-15T02:54:17;421.27;;;384.15;;
22015;SDS011;11172;51.698;-0.292;2022-10-15T02:59:14;434.95;;;396.45;;
22015;SDS011;11172;51.698;-0.292;2022-10-15T03:01:42;447.33;;;407.30;;
22015;SDS011;11172;51.698;-0.292;2022-10-15T03:04:08;429.65;;;390.77;;
22015;SDS011;11172;51.698;-0.292;2022-10-15T03:06:34;435.45;;;396.50;;
22015;SDS011;11172;51.698;-0.292;2022-10-15T03:09:00;437.85;;;398.40;;
22015;SDS011;11172;51.698;-0.292;2022-10-15T03:11:26;441.17;;;401.75;;
22015;SDS011;11172;51.698;-0.292;2022-10-15T03:13:52;430.60;;;390.48;;
22015;SDS011;11172;51.698;-0.292;2022-10-15T03:16:18;444.20;;;404.75;;
22015;SDS011;11172;51.698;-0.292;2022-10-15T03:18:44;440.85;;;401.08;;
22015;SDS011;11172;51.698;-0.292;2022-10-15T03:21:10;445.63;;;405.92;;
22015;SDS011;11172;51.698;-0.292;2022-10-15T03:23:36;443.65;;;403.75;;
22015;SDS011;11172;51.698;-0.292;2022-10-15T03:26:02;447.45;;;406.75;;
22015;SDS011;11172;51.698;-0.292;2022-10-15T03:28:28;445.77;;;404.77;;
22015;SDS011;11172;51.698;-0.292;2022-10-15T03:30:54;452.90;;;411.92;;
22015;SDS011;11172;51.698;-0.292;2022-10-15T03:33:20;445.75;;;405.20;;
22015;SDS011;11172;51.698;-0.292;2022-10-15T03:35:46;455.95;;;413.77;;
22015;SDS011;11172;51.698;-0.292;2022-10-15T03:38:12;456.02;;;414.45;;
22015;SDS011;11172;51.698;-0.292;2022-10-15T03:40:38;456.83;;;415.60;;
22015;SDS011;11172;51.698;-0.292;2022-10-15T03:43:04;448.90;;;407.30;;
22015;SDS011;11172;51.698;-0.292;2022-10-15T03:45:31;459.23;;;417.25;;
22015;SDS011;11172;51.698;-0.292;2022-10-15T03:47:57;451.20;;;409.92;;
22015;SDS011;11172;51.698;-0.292;2022-10-15T03:50:23;454.15;;;412.30;;
22015;SDS011;11172;51.698;-0.292;2022-10-15T03:52:49;461.88;;;419.58;;
22015;SDS011;11172;51.698;-0.292;2022-10-15T03:58:17;474.02;;;429.02;;
22015;SDS011;11172;51.698;-0.292;2022-10-15T04:00:43;463.83;;;420.08;;
22015;SDS011;11172;51.698;-0.292;2022-10-15T04:03:09;456.42;;;413.13;;
22015;SDS011;11172;51.698;-0.292;2022-10-15T04:05:35;469.60;;;425.67;;
22015;SDS011;11172;51.698;-0.292;2022-10-15T04:08:02;461.00;;;417.25;;
22015;SDS011;11172;51.698;-0.292;2022-10-15T04:10:28;471.27;;;426.65;;
22015;SDS011;11172;51.698;-0.292;2022-10-15T04:12:54;471.10;;;425.85;;
22015;SDS011;11172;51.698;-0.292;2022-10-15T04:15:20;462.25;;;417.58;;
22015;SDS011;11172;51.698;-0.292;2022-10-15T04:17:46;479.65;;;433.23;;
22015;SDS011;11172;51.698;-0.292;2022-10-15T04:20:12;479.38;;;433.73;;
22015;SDS011;11172;51.698;-0.292;2022-10-15T04:22:38;470.63;;;425.60;;
22015;SDS011;11172;51.698;-0.292;2022-10-15T04:25:04;481.17;;;433.50;;
22015;SDS011;11172;51.698;-0.292;2022-10-15T04:27:31;480.17;;;433.70;;
22015;SDS011;11172;51.698;-0.292;2022-10-15T04:29:56;476.23;;;428.98;;
22015;SDS011;11172;51.698;-0.292;2022-10-15T04:32:22;482.45;;;434.75;;
22015;SDS011;11172;51.698;-0.292;2022-10-15T04:34:48;473.92;;;427.23;;
22015;SDS011;11172;51.698;-0.292;2022-10-15T04:37:15;482.17;;;433.98;;
22015;SDS011;11172;51.698;-0.292;2022-10-15T04:39:41;487.30;;;439.27;;
22015;SDS011;11172;51.698;-0.292;2022-10-15T04:42:07;476.00;;;428.58;;
22015;SDS011;11172;51.698;-0.292;2022-10-15T04:44:32;488.85;;;440.90;;
22015;SDS011;11172;51.698;-0.292;2022-10-15T04:46:59;498.27;;;449.20;;
22015;SDS011;11172;51.698;-0.292;2022-10-15T04:49:26;493.15;;;444.95;;
22015;SDS011;11172;51.698;-0.292;2022-10-15T04:51:52;498.08;;;448.27;;
22015;SDS011;11172;51.698;-0.292;2022-10-15T04:54:18;494.67;;;445.42;;
22015;SDS011;11172;51.698;-0.292;2022-10-15T04:56:44;499.33;;;449.42;;
22015;SDS011;11172;51.698;-0.292;2022-10-15T04:59:10;495.15;;;446.63;;
22015;SDS011;11172;51.698;-0.292;2022-10-15T05:01:36;493.00;;;444.65;;
22015;SDS011;11172;51.698;-0.292;2022-10-15T05:04:02;499.38;;;450.40;;
22015;SDS011;11172;51.698;-0.292;2022-10-15T05:06:28;493.77;;;445.65;;
22015;SDS011;11172;51.698;-0.292;2022-10-15T05:08:54;493.33;;;445.75;;
22015;SDS011;11172;51.698;-0.292;2022-10-15T05:11:24;494.60;;;447.08;;
22015;SDS011;11172;51.698;-0.292;2022-10-15T05:13:50;513.60;;;464.23;;
22015;SDS011;11172;51.698;-0.292;2022-10-15T05:16:18;501.92;;;454.38;;
22015;SDS011;11172;51.698;-0.292;2022-10-15T05:18:45;489.80;;;441.73;;
22015;SDS011;11172;51.698;-0.292;2022-10-15T05:21:11;491.95;;;443.17;;
22015;SDS011;11172;51.698;-0.292;2022-10-15T05:23:37;492.25;;;445.52;;
22015;SDS011;11172;51.698;-0.292;2022-10-15T05:26:05;499.80;;;452.45;;
22015;SDS011;11172;51.698;-0.292;2022-10-15T05:28:31;502.92;;;454.92;;
22015;SDS011;11172;51.698;-0.292;2022-10-15T05:31:04;491.52;;;444.08;;
22015;SDS011;11172;51.698;-0.292;2022-10-15T05:33:30;495.33;;;448.88;;
22015;SDS011;11172;51.698;-0.292;2022-10-15T05:35:56;503.48;;;455.35;;
22015;SDS011;11172;51.698;-0.292;2022-10-15T05:38:22;496.02;;;448.17;;
22015;SDS011;11172;51.698;-0.292;2022-10-15T05:40:48;494.60;;;447.20;;
22015;SDS011;11172;51.698;-0.292;2022-10-15T05:43:14;494.02;;;447.17;;
22015;SDS011;11172;51.698;-0.292;2022-10-15T05:45:40;509.13;;;461.15;;
22015;SDS011;11172;51.698;-0.292;2022-10-15T05:48:06;503.83;;;456.00;;
22015;SDS011;11172;51.698;-0.292;2022-10-15T05:50:33;504.60;;;456.27;;
22015;SDS011;11172;51.698;-0.292;2022-10-15T05:52:58;514.45;;;466.17;;
22015;SDS011;11172;51.698;-0.292;2022-10-15T05:55:24;502.70;;;454.00;;
22015;SDS011;11172;51.698;-0.292;2022-10-15T05:57:50;510.17;;;461.95;;
22015;SDS011;11172;51.698;-0.292;2022-10-15T06:00:16;506.10;;;456.35;;
22015;SDS011;11172;51.698;-0.292;2022-10-15T06:02:42;498.67;;;450.92;;
22015;SDS011;11172;51.698;-0.292;2022-10-15T06:05:08;490.70;;;443.73;;
22015;SDS011;11172;51.698;-0.292;2022-10-15T06:07:34;511.55;;;462.83;;
22015;SDS011;11172;51.698;-0.292;2022-10-15T06:10:01;499.15;;;451.48;;
22015;SDS011;11172;51.698;-0.292;2022-10-15T06:12:27;484.67;;;438.67;;
22015;SDS011;11172;51.698;-0.292;2022-10-15T06:14:53;519.53;;;468.85;;
22015;SDS011;11172;51.698;-0.292;2022-10-15T06:17:19;494.55;;;448.17;;
22015;SDS011;11172;51.698;-0.292;2022-10-15T06:19:45;491.15;;;443.58;;
22015;SDS011;11172;51.698;-0.292;2022-10-15T06:22:11;488.98;;;442.75;;
22015;SDS011;11172;51.698;-0.292;2022-10-15T06:24:37;480.55;;;434.98;;
22015;SDS011;11172;51.698;-0.292;2022-10-15T06:27:03;483.25;;;437.10;;
22015;SDS011;11172;51.698;-0.292;2022-10-15T06:29:29;487.52;;;442.30;;
22015;SDS011;11172;51.698;-0.292;2022-10-15T06:31:55;485.52;;;441.05;;
22015;SDS011;11172;51.698;-0.292;2022-10-15T06:34:21;483.20;;;437.88;;
22015;SDS011;11172;51.698;-0.292;2022-10-15T06:36:47;496.05;;;450.17;;
22015;SDS011;11172;51.698;-0.292;2022-10-15T06:41:43;477.23;;;432.63;;
22015;SDS011;11172;51.698;-0.292;2022-10-15T06:44:09;493.58;;;447.80;;
22015;SDS011;11172;51.698;-0.292;2022-10-15T06:46:35;482.40;;;438.30;;
22015;SDS011;11172;51.698;-0.292;2022-10-15T06:49:01;491.35;;;445.83;;
22015;SDS011;11172;51.698;-0.292;2022-10-15T06:51:27;493.80;;;449.23;;
22015;SDS011;11172;51.698;-0.292;2022-10-15T06:53:53;488.60;;;443.85;;
22015;SDS011;11172;51.698;-0.292;2022-10-15T06:56:19;490.17;;;445.08;;
22015;SDS011;11172;51.698;-0.292;2022-10-15T06:58:45;483.15;;;438.42;;
22015;SDS011;11172;51.698;-0.292;2022-10-15T07:01:11;484.63;;;439.73;;
22015;SDS011;11172;51.698;-0.292;2022-10-15T07:03:37;472.63;;;430.15;;
22015;SDS011;11172;51.698;-0.292;2022-10-15T07:06:04;466.25;;;424.00;;
22015;SDS011;11172;51.698;-0.292;2022-10-15T07:08:30;476.88;;;434.27;;
22015;SDS011;11172;51.698;-0.292;2022-10-15T07:10:57;487.50;;;443.65;;
22015;SDS011;11172;51.698;-0.292;2022-10-15T07:13:23;488.02;;;442.67;;
22015;SDS011;11172;51.698;-0.292;2022-10-15T07:15:49;483.38;;;439.17;;
22015;SDS011;11172;51.698;-0.292;2022-10-15T07:18:18;479.83;;;436.67;;
22015;SDS011;11172;51.698;-0.292;2022-10-15T07:20:44;469.77;;;427.30;;
22015;SDS011;11172;51.698;-0.292;2022-10-15T07:23:10;468.73;;;426.17;;
22015;SDS011;11172;51.698;-0.292;2022-10-15T07:25:36;468.65;;;425.45;;
22015;SDS011;11172;51.698;-0.292;2022-10-15T07:28:03;465.08;;;421.98;;
22015;SDS011;11172;51.698;-0.292;2022-10-15T07:30:29;470.58;;;427.13;;
22015;SDS011;11172;51.698;-0.292;2022-10-15T07:32:55;470.25;;;427.20;;
22015;SDS011;11172;51.698;-0.292;2022-10-15T07:35:22;468.80;;;425.23;;
22015;SDS011;11172;51.698;-0.292;2022-10-15T07:37:48;466.33;;;423.67;;
22015;SDS011;11172;51.698;-0.292;2022-10-15T07:40:14;449.05;;;408.05;;
22015;SDS011;11172;51.698;-0.292;2022-10-15T07:42:40;474.85;;;432.40;;
22015;SDS011;11172;51.698;-0.292;2022-10-15T07:45:07;451.05;;;409.55;;
22015;SDS011;11172;51.698;-0.292;2022-10-15T07:47:33;454.75;;;414.67;;
22015;SDS011;11172;51.698;-0.292;2022-10-15T07:49:59;452.40;;;413.75;;
22015;SDS011;11172;51.698;-0.292;2022-10-15T07:52:26;439.00;;;402.40;;
22015;SDS011;11172;51.698;-0.292;2022-10-15T07:54:52;439.55;;;403.33;;
22015;SDS011;11172;51.698;-0.292;2022-10-15T07:57:18;457.02;;;418.05;;
22015;SDS011;11172;51.698;-0.292;2022-10-15T07:59:44;426.45;;;391.15;;
22015;SDS011;11172;51.698;-0.292;2022-10-15T08:02:13;417.55;;;382.35;;
22015;SDS011;11172;51.698;-0.292;2022-10-15T08:04:40;405.70;;;372.58;;
22015;SDS011;11172;51.698;-0.292;2022-10-15T08:07:06;378.88;;;348.02;;
22015;SDS011;11172;51.698;-0.292;2022-10-15T08:09:32;360.65;;;331.30;;
22015;SDS011;11172;51.698;-0.292;2022-10-15T08:11:58;351.17;;;322.05;;
22015;SDS011;11172;51.698;-0.292;2022-10-15T08:14:24;325.48;;;298.77;;
22015;SDS011;11172;51.698;-0.292;2022-10-15T08:16:50;310.60;;;284.90;;
22015;SDS011;11172;51.698;-0.292;2022-10-15T08:19:16;290.52;;;266.67;;
22015;SDS011;11172;51.698;-0.292;2022-10-15T08:21:45;257.80;;;236.73;;
22015;SDS011;11172;51.698;-0.292;2022-10-15T08:24:11;253.07;;;231.20;;
22015;SDS011;11172;51.698;-0.292;2022-10-15T08:26:37;227.18;;;207.63;;
22015;SDS011;11172;51.698;-0.292;2022-10-15T08:29:03;215.20;;;197.45;;
22015;SDS011;11172;51.698;-0.292;2022-10-15T08:31:29;189.05;;;173.18;;
22015;SDS011;11172;51.698;-0.292;2022-10-15T08:33:59;177.93;;;162.57;;
22015;SDS011;11172;51.698;-0.292;2022-10-15T08:36:25;153.80;;;140.52;;
22015;SDS011;11172;51.698;-0.292;2022-10-15T08:38:51;142.70;;;130.48;;
22015;SDS011;11172;51.698;-0.292;2022-10-15T08:41:19;126.10;;;115.47;;
22015;SDS011;11172;51.698;-0.292;2022-10-15T08:43:47;120.85;;;110.78;;
22015;SDS011;11172;51.698;-0.292;2022-10-15T08:46:18;105.30;;;96.32;;
22015;SDS011;11172;51.698;-0.292;2022-10-15T08:48:46;98.75;;;90.60;;
22015;SDS011;11172;51.698;-0.292;2022-10-15T08:51:15;88.57;;;81.13;;
22015;SDS011;11172;51.698;-0.292;2022-10-15T08:53:49;83.10;;;75.93;;
22015;SDS011;11172;51.698;-0.292;2022-10-15T08:56:37;77.32;;;70.53;;
22015;SDS011;11172;51.698;-0.292;2022-10-15T09:01:56;66.03;;;60.53;;
22015;SDS011;11172;51.698;-0.292;2022-10-15T09:06:50;51.33;;;46.72;;
22015;SDS011;11172;51.698;-0.292;2022-10-15T09:12:03;44.15;;;40.55;;
22015;SDS011;11172;51.698;-0.292;2022-10-15T09:14:33;42.80;;;39.30;;
22015;SDS011;11172;51.698;-0.292;2022-10-15T09:17:02;38.33;;;34.92;;
22015;SDS011;11172;51.698;-0.292;2022-10-15T09:21:55;32.05;;;29.48;;
22015;SDS011;11172;51.698;-0.292;2022-10-15T09:24:23;29.48;;;27.02;;
22015;SDS011;11172;51.698;-0.292;2022-10-15T09:26:59;28.40;;;25.85;;
22015;SDS011;11172;51.698;-0.292;2022-10-15T09:29:29;31.08;;;28.52;;
22015;SDS011;11172;51.698;-0.292;2022-10-15T09:32:06;27.83;;;25.40;;
22015;SDS011;11172;51.698;-0.292;2022-10-15T09:34:49;29.08;;;26.63;;
22015;SDS011;11172;51.698;-0.292;2022-10-15T09:42:28;24.63;;;22.55;;
22015;SDS011;11172;51.698;-0.292;2022-10-15T09:44:56;21.77;;;19.83;;
22015;SDS011;11172;51.698;-0.292;2022-10-15T09:47:24;19.58;;;17.83;;
22015;SDS011;11172;51.698;-0.292;2022-10-15T09:49:50;42.90;;;23.58;;
22015;SDS011;11172;51.698;-0.292;2022-10-15T09:52:29;16.75;;;15.25;;
22015;SDS011;11172;51.698;-0.292;2022-10-15T09:55:15;16.80;;;15.32;;
22015;SDS011;11172;51.698;-0.292;2022-10-15T09:57:46;16.63;;;15.25;;
22015;SDS011;11172;51.698;-0.292;2022-10-15T10:00:13;15.52;;;13.82;;
22015;SDS011;11172;51.698;-0.292;2022-10-15T10:02:39;16.40;;;14.65;;
22015;SDS011;11172;51.698;-0.292;2022-10-15T10:07:44;15.23;;;13.60;;
22015;SDS011;11172;51.698;-0.292;2022-10-15T10:10:23;14.27;;;13.07;;
22015;SDS011;11172;51.698;-0.292;2022-10-15T10:12:50;18.30;;;15.50;;
22015;SDS011;11172;51.698;-0.292;2022-10-15T10:17:52;3.10;;;1.53;;
22015;SDS011;11172;51.698;-0.292;2022-10-15T10:20:19;16.77;;;15.10;;
22015;SDS011;11172;51.698;-0.292;2022-10-15T10:22:49;18.70;;;17.05;;
22015;SDS011;11172;51.698;-0.292;2022-10-15T10:30:36;23.83;;;21.50;;
22015;SDS011;11172;51.698;-0.292;2022-10-15T10:33:03;20.98;;;19.23;;
22015;SDS011;11172;51.698;-0.292;2022-10-15T10:35:33;23.27;;;20.80;;
22015;SDS011;11172;51.698;-0.292;2022-10-15T10:38:00;20.35;;;18.52;;
22015;SDS011;11172;51.698;-0.292;2022-10-15T10:40:27;23.65;;;19.65;;
22015;SDS011;11172;51.698;-0.292;2022-10-15T10:48:28;27.92;;;25.45;;
22015;SDS011;11172;51.698;-0.292;2022-10-15T10:51:16;27.63;;;25.30;;
22015;SDS011;11172;51.698;-0.292;2022-10-15T10:53:47;33.38;;;30.25;;
22015;SDS011;11172;51.698;-0.292;2022-10-15T10:56:13;29.55;;;26.75;;
22015;SDS011;11172;51.698;-0.292;2022-10-15T10:58:40;31.38;;;28.55;;
22015;SDS011;11172;51.698;-0.292;2022-10-15T11:01:09;31.27;;;28.38;;
22015;SDS011;11172;51.698;-0.292;2022-10-15T11:03:37;31.25;;;28.40;;
22015;SDS011;11172;51.698;-0.292;2022-10-15T11:06:24;31.13;;;28.17;;
22015;SDS011;11172;51.698;-0.292;2022-10-15T11:11:24;35.90;;;32.45;;
22015;SDS011;11172;51.698;-0.292;2022-10-15T11:19:13;35.70;;;32.30;;
22015;SDS011;11172;51.698;-0.292;2022-10-15T11:21:53;36.33;;;32.75;;
22015;SDS011;11172;51.698;-0.292;2022-10-15T11:29:46;41.40;;;37.85;;
22015;SDS011;11172;51.698;-0.292;2022-10-15T11:43:18;41.40;;;37.72;;
22015;SDS011;11172;51.698;-0.292;2022-10-15T11:45:41;43.75;;;39.53;;
22015;SDS011;11172;51.698;-0.292;2022-10-15T11:48:11;41.60;;;37.80;;
22015;SDS011;11172;51.698;-0.292;2022-10-15T11:50:43;43.97;;;39.92;;
22015;SDS011;11172;51.698;-0.292;2022-10-15T11:58:29;42.20;;;38.30;;
22015;SDS011;11172;51.698;-0.292;2022-10-15T12:01:01;43.72;;;39.50;;
22015;SDS011;11172;51.698;-0.292;2022-10-15T12:03:32;48.83;;;44.25;;
22015;SDS011;11172;51.698;-0.292;2022-10-15T12:06:08;47.55;;;42.97;;
22015;SDS011;11172;51.698;-0.292;2022-10-15T12:08:35;47.75;;;43.45;;
22015;SDS011;11172;51.698;-0.292;2022-10-15T12:15:59;44.78;;;40.35;;
22015;SDS011;11172;51.698;-0.292;2022-10-15T12:21:01;52.40;;;47.28;;
22015;SDS011;11172;51.698;-0.292;2022-10-15T12:25:59;48.97;;;43.92;;
22015;SDS011;11172;51.698;-0.292;2022-10-15T12:28:26;47.75;;;42.90;;
22015;SDS011;11172;51.698;-0.292;2022-10-15T12:30:57;48.20;;;43.30;;
22015;SDS011;11172;51.698;-0.292;2022-10-15T12:35:54;51.88;;;47.10;;
22015;SDS011;11172;51.698;-0.292;2022-10-15T12:38:30;52.75;;;47.88;;
22015;SDS011;11172;51.698;-0.292;2022-10-15T12:41:07;53.90;;;48.80;;
22015;SDS011;11172;51.698;-0.292;2022-10-15T12:43:34;52.38;;;47.60;;
22015;SDS011;11172;51.698;-0.292;2022-10-15T12:46:02;57.13;;;51.78;;
22015;SDS011;11172;51.698;-0.292;2022-10-15T12:48:30;51.95;;;47.00;;
22015;SDS011;11172;51.698;-0.292;2022-10-15T12:53:44;56.55;;;51.20;;
22015;SDS011;11172;51.698;-0.292;2022-10-15T12:56:12;54.78;;;49.50;;
22015;SDS011;11172;51.698;-0.292;2022-10-15T12:58:39;53.35;;;48.28;;
22015;SDS011;11172;51.698;-0.292;2022-10-15T13:01:14;59.25;;;50.88;;
22015;SDS011;11172;51.698;-0.292;2022-10-15T13:03:51;60.83;;;55.28;;
22015;SDS011;11172;51.698;-0.292;2022-10-15T13:08:52;55.72;;;50.33;;
22015;SDS011;11172;51.698;-0.292;2022-10-15T13:13:52;53.72;;;48.83;;
22015;SDS011;11172;51.698;-0.292;2022-10-15T13:16:20;59.50;;;53.70;;
22015;SDS011;11172;51.698;-0.292;2022-10-15T13:18:48;54.85;;;49.80;;
22015;SDS011;11172;51.698;-0.292;2022-10-15T13:21:14;56.08;;;50.70;;
22015;SDS011;11172;51.698;-0.292;2022-10-15T13:23:47;57.55;;;51.97;;
22015;SDS011;11172;51.698;-0.292;2022-10-15T13:28:40;58.38;;;52.58;;
22015;SDS011;11172;51.698;-0.292;2022-10-15T13:31:11;57.20;;;51.88;;
22015;SDS011;11172;51.698;-0.292;2022-10-15T13:33:38;64.97;;;58.55;;
22015;SDS011;11172;51.698;-0.292;2022-10-15T13:36:06;61.00;;;55.10;;
22015;SDS011;11172;51.698;-0.292;2022-10-15T13:38:32;57.83;;;52.22;;
22015;SDS011;11172;51.698;-0.292;2022-10-15T13:41:00;60.90;;;54.90;;
22015;SDS011;11172;51.698;-0.292;2022-10-15T13:43:26;60.63;;;55.25;;
22015;SDS011;11172;51.698;-0.292;2022-10-15T13:45:57;64.40;;;58.53;;
22015;SDS011;11172;51.698;-0.292;2022-10-15T13:48:24;60.30;;;54.42;;
22015;SDS011;11172;51.698;-0.292;2022-10-15T13:50:51;59.67;;;54.50;;
22015;SDS011;11172;51.698;-0.292;2022-10-15T13:55:49;62.90;;;57.25;;
22015;SDS011;11172;51.698;-0.292;2022-10-15T14:01:07;71.05;;;64.30;;
22015;SDS011;11172;51.698;-0.292;2022-10-15T14:03:34;66.78;;;60.40;;
22015;SDS011;11172;51.698;-0.292;2022-10-15T14:08:52;66.97;;;60.67;;
22015;SDS011;11172;51.698;-0.292;2022-10-15T14:11:19;63.72;;;57.78;;
22015;SDS011;11172;51.698;-0.292;2022-10-15T14:13:55;61.90;;;56.53;;
22015;SDS011;11172;51.698;-0.292;2022-10-15T14:18:55;35.25;;;32.60;;
22015;SDS011;11172;51.698;-0.292;2022-10-15T14:21:23;73.88;;;67.30;;
22015;SDS011;11172;51.698;-0.292;2022-10-15T14:24:00;73.00;;;65.78;;
22015;SDS011;11172;51.698;-0.292;2022-10-15T14:26:27;72.53;;;65.90;;
22015;SDS011;11172;51.698;-0.292;2022-10-15T14:28:53;74.97;;;67.78;;
22015;SDS011;11172;51.698;-0.292;2022-10-15T14:31:25;73.88;;;66.63;;
22015;SDS011;11172;51.698;-0.292;2022-10-15T14:33:53;57.85;;;52.67;;
22015;SDS011;11172;51.698;-0.292;2022-10-15T14:38:45;72.25;;;65.60;;
22015;SDS011;11172;51.698;-0.292;2022-10-15T14:43:58;74.97;;;68.13;;
22015;SDS011;11172;51.698;-0.292;2022-10-15T14:46:33;80.20;;;72.43;;
22015;SDS011;11172;51.698;-0.292;2022-10-15T14:49:01;78.00;;;70.72;;
22015;SDS011;11172;51.698;-0.292;2022-10-15T14:51:27;73.85;;;67.18;;
22015;SDS011;11172;51.698;-0.292;2022-10-15T14:53:53;79.70;;;72.53;;
22015;SDS011;11172;51.698;-0.292;2022-10-15T14:56:20;78.15;;;70.68;;
22015;SDS011;11172;51.698;-0.292;2022-10-15T14:58:51;81.97;;;74.13;;
22015;SDS011;11172;51.698;-0.292;2022-10-15T15:01:19;84.40;;;76.57;;
22015;SDS011;11172;51.698;-0.292;2022-10-15T15:03:47;83.20;;;75.53;;
22015;SDS011;11172;51.698;-0.292;2022-10-15T15:06:13;80.22;;;72.80;;
22015;SDS011;11172;51.698;-0.292;2022-10-15T15:08:39;77.43;;;69.93;;
22015;SDS011;11172;51.698;-0.292;2022-10-15T15:11:05;72.78;;;65.82;;
22015;SDS011;11172;51.698;-0.292;2022-10-15T15:13:36;71.47;;;64.75;;
22015;SDS011;11172;51.698;-0.292;2022-10-15T15:16:03;71.82;;;64.85;;
22015;SDS011;11172;51.698;-0.292;2022-10-15T15:18:29;73.68;;;66.75;;
22015;SDS011;11172;51.698;-0.292;2022-10-15T15:20:56;71.63;;;64.75;;
22015;SDS011;11172;51.698;-0.292;2022-10-15T15:23:24;76.35;;;69.03;;
22015;SDS011;11172;51.698;-0.292;2022-10-15T15:25:51;75.35;;;68.35;;
22015;SDS011;11172;51.698;-0.292;2022-10-15T15:28:18;78.75;;;70.93;;
22015;SDS011;11172;51.698;-0.292;2022-10-15T15:30:45;78.57;;;71.45;;
22015;SDS011;11172;51.698;-0.292;2022-10-15T15:33:12;80.00;;;72.60;;
22015;SDS011;11172;51.698;-0.292;2022-10-15T15:35:46;82.18;;;74.68;;
22015;SDS011;11172;51.698;-0.292;2022-10-15T15:38:17;86.65;;;78.47;;
22015;SDS011;11172;51.698;-0.292;2022-10-15T15:40:44;85.35;;;76.70;;
22015;SDS011;11172;51.698;-0.292;2022-10-15T15:43:13;85.07;;;76.30;;
22015;SDS011;11172;51.698;-0.292;2022-10-15T15:45:40;84.00;;;75.72;;
22015;SDS011;11172;51.698;-0.292;2022-10-15T15:48:06;82.55;;;73.60;;
22015;SDS011;11172;51.698;-0.292;2022-10-15T15:50:32;84.38;;;76.15;;
22015;SDS011;11172;51.698;-0.292;2022-10-15T15:52:59;84.53;;;76.60;;
22015;SDS011;11172;51.698;-0.292;2022-10-15T15:55:25;92.90;;;83.57;;
22015;SDS011;11172;51.698;-0.292;2022-10-15T15:57:51;89.18;;;80.03;;
22015;SDS011;11172;51.698;-0.292;2022-10-15T16:00:17;99.10;;;89.25;;
22015;SDS011;11172;51.698;-0.292;2022-10-15T16:02:43;91.68;;;82.60;;
22015;SDS011;11172;51.698;-0.292;2022-10-15T16:05:10;97.90;;;88.65;;
22015;SDS011;11172;51.698;-0.292;2022-10-15T16:07:37;98.40;;;89.22;;
22015;SDS011;11172;51.698;-0.292;2022-10-15T16:10:03;103.35;;;93.25;;
22015;SDS011;11172;51.698;-0.292;2022-10-15T16:12:32;112.03;;;101.68;;
22015;SDS011;11172;51.698;-0.292;2022-10-15T16:14:58;104.60;;;94.57;;
22015;SDS011;11172;51.698;-0.292;2022-10-15T16:17:24;104.63;;;94.50;;